createdAt,value
2023-02-15T00:00:39.192Z,1.57
2023-02-15T00:01:42.940Z,1.54
2023-02-15T00:02:50.102Z,1.51
2023-02-15T00:03:53.160Z,1.49
2023-02-15T00:04:57.302Z,1.49
2023-02-15T00:06:01.982Z,1.47
2023-02-15T00:07:05.680Z,1.47
2023-02-15T00:08:09.892Z,1.47
2023-02-15T00:09:14.043Z,1.48
2023-02-15T00:10:18.251Z,1.49
2023-02-15T00:11:22.403Z,1.49
2023-02-15T00:12:26.550Z,1.52
2023-02-15T00:13:30.650Z,1.55
2023-02-15T00:14:34.844Z,1.57
2023-02-15T00:15:39.029Z,1.59
2023-02-15T00:16:43.192Z,1.61
2023-02-15T00:17:53.203Z,1.63
2023-02-15T00:18:55.845Z,1.65
2023-02-15T00:20:00.027Z,1.67
2023-02-15T00:21:04.072Z,1.69
2023-02-15T00:22:09.198Z,1.71
2023-02-15T00:23:12.922Z,1.74
2023-02-15T00:24:17.219Z,1.77
2023-02-15T00:25:21.415Z,1.79
2023-02-15T00:26:25.541Z,1.81
2023-02-15T00:27:29.664Z,1.83
2023-02-15T00:28:33.940Z,1.85
2023-02-15T00:29:38.161Z,1.83
2023-02-15T00:30:42.271Z,1.79
2023-02-15T00:31:46.397Z,1.76
2023-02-15T00:32:50.512Z,1.73
2023-02-15T00:33:54.682Z,1.70
2023-02-15T00:34:58.802Z,1.68
2023-02-15T00:36:03.293Z,1.65
2023-02-15T00:37:07.093Z,1.62
2023-02-15T00:38:11.445Z,1.59
2023-02-15T00:39:15.624Z,1.57
2023-02-15T00:40:19.622Z,1.55
2023-02-15T00:41:23.885Z,1.54
2023-02-15T00:42:42.085Z,1.54
2023-02-15T00:43:44.918Z,1.54
2023-02-15T00:44:49.051Z,1.55
2023-02-15T00:45:53.258Z,1.56
2023-02-15T00:46:57.321Z,1.56
2023-02-15T00:48:01.549Z,1.56
2023-02-15T00:49:05.837Z,1.55
2023-02-15T00:50:09.962Z,1.54
2023-02-15T00:51:14.091Z,1.52
2023-02-15T00:52:18.312Z,1.52
2023-02-15T00:53:22.540Z,1.52
2023-02-15T00:54:29.686Z,1.51
2023-02-15T00:55:32.924Z,1.48
2023-02-15T00:56:37.034Z,1.46
2023-02-15T00:57:41.146Z,1.43
2023-02-15T00:58:59.449Z,1.42
2023-02-15T01:00:02.486Z,1.36
2023-02-15T01:01:06.563Z,1.28
2023-02-15T01:02:10.790Z,1.22
2023-02-15T01:03:14.979Z,1.16
2023-02-15T01:04:18.997Z,1.13
2023-02-15T01:05:23.152Z,1.12
2023-02-15T01:06:27.200Z,1.12
2023-02-15T01:07:31.321Z,1.13
2023-02-15T01:08:35.440Z,1.14
2023-02-15T01:09:42.644Z,1.15
2023-02-15T01:10:45.855Z,1.17
2023-02-15T01:11:50.069Z,1.19
2023-02-15T01:12:54.057Z,1.19
2023-02-15T01:13:58.188Z,1.18
2023-02-15T01:15:02.535Z,1.18
2023-02-15T01:16:06.637Z,1.18
2023-02-15T01:17:10.809Z,1.18
2023-02-15T01:18:14.954Z,1.16
2023-02-15T01:19:19.282Z,1.15
2023-02-15T01:20:23.356Z,1.14
2023-02-15T01:21:27.472Z,1.16
2023-02-15T01:22:31.647Z,1.15
2023-02-15T01:23:35.783Z,1.16
2023-02-15T01:24:39.944Z,1.17
2023-02-15T01:25:44.181Z,1.18
2023-02-15T01:26:48.155Z,1.21
2023-02-15T01:27:52.388Z,1.20
2023-02-15T01:28:56.539Z,1.15
2023-02-15T01:30:00.747Z,1.11
2023-02-15T01:31:04.863Z,1.06
2023-02-15T01:32:09.045Z,1.02
2023-02-15T01:33:13.224Z,1.01
2023-02-15T01:34:17.343Z,1.01
2023-02-15T01:35:21.591Z,1.02
2023-02-15T01:36:25.918Z,1.04
2023-02-15T01:37:29.863Z,1.05
2023-02-15T01:38:34.057Z,1.08
2023-02-15T01:39:38.282Z,1.10
2023-02-15T01:40:42.573Z,1.12
2023-02-15T01:41:46.837Z,1.15
2023-02-15T01:42:50.919Z,1.12
2023-02-15T01:43:55.182Z,1.09
2023-02-15T01:44:59.233Z,1.04
2023-02-15T01:46:03.861Z,1.00
2023-02-15T01:47:07.512Z,0.96
2023-02-15T01:48:11.606Z,0.93
2023-02-15T01:49:15.929Z,0.94
2023-02-15T01:50:20.123Z,0.95
2023-02-15T01:51:24.232Z,0.97
2023-02-15T01:52:28.442Z,0.99
2023-02-15T01:53:32.584Z,1.02
2023-02-15T01:54:36.773Z,1.02
2023-02-15T01:55:40.746Z,1.04
2023-02-15T01:56:44.955Z,1.01
2023-02-15T01:57:49.280Z,0.98
2023-02-15T01:58:53.340Z,0.93
2023-02-15T01:59:57.540Z,0.86
2023-02-15T02:01:01.710Z,0.81
2023-02-15T02:02:05.701Z,0.79
2023-02-15T02:03:09.931Z,0.79
2023-02-15T02:04:14.090Z,0.81
2023-02-15T02:05:18.184Z,0.83
2023-02-15T02:06:23.356Z,0.86
2023-02-15T02:07:26.484Z,0.89
2023-02-15T02:08:30.606Z,0.91
2023-02-15T02:09:34.702Z,0.92
2023-02-15T02:10:38.904Z,0.89
2023-02-15T02:11:42.970Z,0.83
2023-02-15T02:12:47.223Z,0.74
2023-02-15T02:13:51.388Z,0.65
2023-02-15T02:16:22.501Z,0.50
2023-02-15T02:17:26.472Z,0.47
2023-02-15T02:18:30.600Z,0.43
2023-02-15T02:19:34.736Z,0.44
2023-02-15T02:20:38.821Z,0.44
2023-02-15T02:21:42.928Z,0.48
2023-02-15T02:22:46.993Z,0.52
2023-02-15T02:23:51.058Z,0.56
2023-02-15T02:24:55.243Z,0.61
2023-02-15T02:25:59.816Z,0.65
2023-02-15T02:27:03.443Z,0.69
2023-02-15T02:28:07.499Z,0.73
2023-02-15T02:29:11.695Z,0.77
2023-02-15T02:30:15.917Z,0.84
2023-02-15T02:31:20.150Z,0.93
2023-02-15T02:32:24.275Z,1.03
2023-02-15T02:33:28.323Z,1.11
2023-02-15T02:34:32.385Z,1.16
2023-02-15T02:35:37.432Z,1.16
2023-02-15T02:36:41.217Z,1.11
2023-02-15T02:37:45.338Z,1.05
2023-02-15T02:38:49.471Z,1.01
2023-02-15T02:39:53.603Z,0.96
2023-02-15T02:40:57.770Z,0.91
2023-02-15T02:42:02.821Z,0.86
2023-02-15T02:43:06.547Z,0.82
2023-02-15T02:44:10.550Z,0.80
2023-02-15T02:45:14.832Z,0.78
2023-02-15T02:46:19.017Z,0.76
2023-02-15T02:47:23.083Z,0.75
2023-02-15T02:48:27.263Z,0.76
2023-02-15T02:49:45.330Z,0.79
2023-02-15T02:50:48.170Z,0.79
2023-02-15T02:51:52.111Z,0.79
2023-02-15T02:52:56.200Z,0.78
2023-02-15T02:54:00.388Z,0.77
2023-02-15T02:55:04.509Z,0.75
2023-02-15T02:56:24.666Z,0.73
2023-02-15T02:57:27.684Z,0.71
2023-02-15T02:58:31.693Z,0.70
2023-02-15T02:59:35.899Z,0.69
2023-02-15T03:00:40.000Z,0.69
2023-02-15T03:01:44.238Z,0.68
2023-02-15T03:02:48.336Z,0.69
2023-02-15T03:03:52.321Z,0.72
2023-02-15T03:04:56.504Z,0.77
2023-02-15T03:06:01.131Z,0.82
2023-02-15T03:07:04.826Z,0.88
2023-02-15T03:08:08.880Z,0.92
2023-02-15T03:09:12.938Z,0.98
2023-02-15T03:10:17.065Z,1.02
2023-02-15T03:11:21.235Z,1.06
2023-02-15T03:12:25.506Z,1.10
2023-02-15T03:13:29.544Z,1.11
2023-02-15T03:14:33.721Z,1.12
2023-02-15T03:15:37.874Z,1.13
2023-02-15T03:16:42.051Z,1.14
2023-02-15T03:17:46.121Z,1.16
2023-02-15T03:18:50.294Z,1.18
2023-02-15T03:20:08.565Z,1.20
2023-02-15T03:21:11.175Z,1.25
2023-02-15T03:22:15.318Z,1.27
2023-02-15T03:23:19.358Z,1.30
2023-02-15T03:24:23.528Z,1.31
2023-02-15T03:25:27.813Z,1.34
2023-02-15T03:26:31.933Z,1.34
2023-02-15T03:27:35.950Z,1.35
2023-02-15T03:28:40.231Z,1.38
2023-02-15T03:29:44.432Z,1.38
2023-02-15T03:30:48.572Z,1.38
2023-02-15T03:31:52.761Z,1.38
2023-02-15T03:32:56.635Z,1.36
2023-02-15T03:34:00.878Z,1.35
2023-02-15T03:35:04.916Z,1.33
2023-02-15T03:36:09.042Z,1.32
2023-02-15T03:37:13.210Z,1.31
2023-02-15T03:38:17.340Z,1.30
2023-02-15T03:39:21.533Z,1.29
2023-02-15T03:40:25.613Z,1.29
2023-02-15T03:41:29.662Z,1.28
2023-02-15T03:42:33.957Z,1.25
2023-02-15T03:43:38.076Z,1.20
2023-02-15T03:44:42.242Z,1.13
2023-02-15T03:45:46.372Z,1.05
2023-02-15T03:46:53.275Z,0.98
2023-02-15T03:47:54.577Z,0.97
2023-02-15T03:48:58.699Z,0.96
2023-02-15T03:50:02.758Z,1.02
2023-02-15T03:51:06.970Z,1.03
2023-02-15T03:52:11.247Z,1.02
2023-02-15T03:53:15.414Z,1.02
2023-02-15T03:54:19.441Z,1.00
2023-02-15T03:55:23.711Z,0.97
2023-02-15T03:56:27.698Z,0.95
2023-02-15T03:57:31.931Z,0.90
2023-02-15T03:58:36.025Z,0.87
2023-02-15T03:59:40.159Z,0.80
2023-02-15T04:00:44.361Z,0.76
2023-02-15T04:01:48.291Z,0.71
2023-02-15T04:02:52.548Z,0.68
2023-02-15T04:03:56.552Z,0.66
2023-02-15T04:05:00.793Z,0.65
2023-02-15T04:06:04.910Z,0.65
2023-02-15T04:07:09.005Z,0.64
2023-02-15T04:08:13.190Z,0.63
2023-02-15T04:09:17.287Z,0.62
2023-02-15T04:10:21.431Z,0.60
2023-02-15T04:11:25.616Z,0.59
2023-02-15T04:12:29.703Z,0.59
2023-02-15T04:13:33.849Z,0.58
2023-02-15T04:14:38.048Z,0.60
2023-02-15T04:15:42.171Z,0.62
2023-02-15T04:16:46.386Z,0.67
2023-02-15T04:17:50.453Z,0.72
2023-02-15T04:18:54.681Z,0.79
2023-02-15T04:19:58.884Z,0.86
2023-02-15T04:21:02.974Z,0.88
2023-02-15T04:22:07.077Z,0.88
2023-02-15T04:23:11.249Z,0.90
2023-02-15T04:24:15.319Z,0.88
2023-02-15T04:25:19.503Z,0.87
2023-02-15T04:26:23.493Z,0.85
2023-02-15T04:27:27.584Z,0.83
2023-02-15T04:28:31.829Z,0.84
2023-02-15T04:29:36.018Z,0.85
2023-02-15T04:30:40.126Z,0.89
2023-02-15T04:31:44.403Z,0.91
2023-02-15T04:32:48.324Z,0.93
2023-02-15T04:33:52.495Z,0.94
2023-02-15T04:34:56.683Z,0.95
2023-02-15T04:36:01.227Z,0.97
2023-02-15T04:37:04.909Z,0.99
2023-02-15T04:38:08.984Z,1.00
2023-02-15T04:39:13.091Z,1.01
2023-02-15T04:40:19.319Z,1.02
2023-02-15T04:41:21.409Z,1.01
2023-02-15T04:42:25.574Z,0.99
2023-02-15T04:43:29.832Z,0.95
2023-02-15T04:44:33.938Z,0.91
2023-02-15T04:45:52.078Z,0.89
2023-02-15T04:46:54.755Z,0.89
2023-02-15T04:47:58.767Z,0.88
2023-02-15T04:49:02.864Z,0.89
2023-02-15T04:50:07.056Z,0.88
2023-02-15T04:51:11.120Z,0.88
2023-02-15T04:52:21.236Z,0.89
2023-02-15T04:53:24.067Z,0.88
2023-02-15T04:54:28.119Z,0.88
2023-02-15T04:55:32.163Z,0.88
2023-02-15T04:56:36.203Z,0.88
2023-02-15T04:57:40.431Z,0.88
2023-02-15T04:58:44.447Z,0.86
2023-02-15T04:59:48.732Z,0.83
2023-02-15T05:00:52.774Z,0.81
2023-02-15T05:01:56.789Z,0.79
2023-02-15T05:03:01.044Z,0.78
2023-02-15T05:04:05.330Z,0.77
2023-02-15T05:05:09.319Z,0.75
2023-02-15T05:06:13.374Z,0.75
2023-02-15T05:07:17.481Z,0.75
2023-02-15T05:08:21.657Z,0.74
2023-02-15T05:09:25.662Z,0.73
2023-02-15T05:10:29.851Z,0.72
2023-02-15T05:11:33.995Z,0.72
2023-02-15T05:12:38.143Z,0.72
2023-02-15T05:13:42.314Z,0.71
2023-02-15T05:14:46.413Z,0.71
2023-02-15T05:15:50.551Z,0.71
2023-02-15T05:16:54.709Z,0.71
2023-02-15T05:17:58.746Z,0.72
2023-02-15T05:19:16.958Z,0.74
2023-02-15T05:20:19.920Z,0.75
2023-02-15T05:21:23.858Z,0.78
2023-02-15T05:22:28.047Z,0.79
2023-02-15T05:23:32.209Z,0.80
2023-02-15T05:24:36.345Z,0.81
2023-02-15T05:25:40.342Z,0.81
2023-02-15T05:26:44.668Z,0.82
2023-02-15T05:27:48.792Z,0.79
2023-02-15T05:28:52.971Z,0.76
2023-02-15T05:29:57.113Z,0.76
2023-02-15T05:31:01.332Z,0.75
2023-02-15T05:32:05.650Z,0.74
2023-02-15T05:33:09.373Z,0.73
2023-02-15T05:34:13.481Z,0.73
2023-02-15T05:35:31.635Z,0.68
2023-02-15T05:36:34.502Z,0.64
2023-02-15T05:37:38.586Z,0.64
2023-02-15T05:38:42.567Z,0.64
2023-02-15T05:39:46.814Z,0.63
2023-02-15T05:40:50.809Z,0.62
2023-02-15T05:41:54.916Z,0.61
2023-02-15T05:42:59.060Z,0.61
2023-02-15T05:44:03.220Z,0.64
2023-02-15T05:45:07.466Z,0.67
2023-02-15T05:46:11.486Z,0.70
2023-02-15T05:47:15.618Z,0.72
2023-02-15T05:48:19.806Z,0.75
2023-02-15T05:49:24.063Z,0.79
2023-02-15T05:50:28.130Z,0.82
2023-02-15T05:51:46.402Z,0.87
2023-02-15T05:52:51.248Z,0.89
2023-02-15T05:54:07.164Z,0.91
2023-02-15T05:55:09.989Z,0.91
2023-02-15T05:56:14.139Z,0.92
2023-02-15T05:57:18.250Z,0.93
2023-02-15T05:58:22.261Z,0.94
2023-02-15T05:59:26.538Z,0.94
2023-02-15T06:00:30.750Z,0.92
2023-02-15T06:01:34.754Z,0.90
2023-02-15T06:02:53.054Z,0.90
2023-02-15T06:03:56.078Z,0.88
2023-02-15T06:04:59.990Z,0.84
2023-02-15T06:06:04.351Z,0.79
2023-02-15T06:07:08.270Z,0.72
2023-02-15T06:08:12.292Z,0.67
2023-02-15T06:09:16.481Z,0.65
2023-02-15T06:10:20.707Z,0.63
2023-02-15T06:11:24.750Z,0.61
2023-02-15T06:12:28.944Z,0.60
2023-02-15T06:13:33.048Z,0.56
2023-02-15T06:14:37.068Z,0.55
2023-02-15T06:15:41.220Z,0.57
2023-02-15T06:16:45.262Z,0.58
2023-02-15T06:17:49.464Z,0.58
2023-02-15T06:18:53.893Z,0.58
2023-02-15T06:19:57.633Z,0.60
2023-02-15T06:21:01.861Z,0.60
2023-02-15T06:22:06.012Z,0.63
2023-02-15T06:23:10.173Z,0.65
2023-02-15T06:24:14.295Z,0.68
2023-02-15T06:25:18.441Z,0.70
2023-02-15T06:26:22.486Z,0.72
2023-02-15T06:27:26.757Z,0.75
2023-02-15T06:28:30.993Z,0.75
2023-02-15T06:29:34.988Z,0.78
2023-02-15T06:30:39.250Z,0.81
2023-02-15T06:31:43.590Z,0.82
2023-02-15T06:32:47.495Z,0.84
2023-02-15T06:33:51.627Z,0.87
2023-02-15T06:34:55.708Z,0.89
2023-02-15T06:36:00.258Z,0.91
2023-02-15T06:37:03.965Z,0.95
2023-02-15T06:38:08.354Z,0.97
2023-02-15T06:39:12.297Z,0.98
2023-02-15T06:40:16.464Z,0.99
2023-02-15T06:41:20.616Z,0.99
2023-02-15T06:42:24.631Z,0.98
2023-02-15T06:43:28.861Z,0.97
2023-02-15T06:44:33.004Z,0.96
2023-02-15T06:45:37.123Z,0.93
2023-02-15T06:46:41.340Z,0.88
2023-02-15T06:47:45.377Z,0.85
2023-02-15T06:48:49.472Z,0.83
2023-02-15T06:49:53.643Z,0.82
2023-02-15T06:50:58.681Z,0.84
2023-02-15T06:52:02.440Z,0.87
2023-02-15T06:53:06.502Z,0.93
2023-02-15T06:54:10.747Z,1.00
2023-02-15T06:55:14.935Z,1.08
2023-02-15T06:56:19.025Z,1.17
2023-02-15T06:57:23.073Z,1.25
2023-02-15T06:58:27.285Z,1.34
2023-02-15T06:59:31.309Z,1.42
2023-02-15T07:00:35.608Z,1.50
2023-02-15T07:01:39.836Z,1.58
2023-02-15T07:02:43.886Z,1.64
2023-02-15T07:03:47.986Z,1.72
2023-02-15T07:04:52.207Z,1.77
2023-02-15T07:05:56.183Z,1.83
2023-02-15T07:07:00.399Z,1.87
2023-02-15T07:08:04.537Z,1.92
2023-02-15T07:09:08.745Z,1.97
2023-02-15T07:10:12.780Z,2.00
2023-02-15T07:11:17.158Z,2.03
2023-02-15T07:12:21.130Z,2.06
2023-02-15T07:13:25.243Z,2.09
2023-02-15T07:14:30.414Z,2.12
2023-02-15T07:15:34.141Z,2.15
2023-02-15T07:16:38.414Z,2.18
2023-02-15T07:17:42.389Z,2.20
2023-02-15T07:19:02.700Z,2.21
2023-02-15T07:20:05.841Z,2.25
2023-02-15T07:21:09.862Z,2.28
2023-02-15T07:22:14.149Z,2.30
2023-02-15T07:23:18.173Z,2.33
2023-02-15T07:24:22.381Z,2.36
2023-02-15T07:25:26.584Z,2.38
2023-02-15T07:26:30.744Z,2.41
2023-02-15T07:27:34.863Z,2.43
2023-02-15T07:28:38.987Z,2.45
2023-02-15T07:29:43.210Z,2.46
2023-02-15T07:30:47.383Z,2.49
2023-02-15T07:31:51.569Z,2.50
2023-02-15T07:32:55.605Z,2.52
2023-02-15T07:33:59.795Z,2.54
2023-02-15T07:35:04.101Z,2.57
2023-02-15T07:36:09.157Z,2.59
2023-02-15T07:37:12.903Z,2.61
2023-02-15T07:38:17.082Z,2.64
2023-02-15T07:39:21.344Z,2.65
2023-02-15T07:40:25.436Z,2.67
2023-02-15T07:41:29.633Z,2.69
2023-02-15T07:42:33.698Z,2.70
2023-02-15T07:43:37.980Z,2.72
2023-02-15T07:44:42.200Z,2.73
2023-02-15T07:45:46.317Z,2.74
2023-02-15T07:46:50.490Z,2.74
2023-02-15T07:47:54.709Z,2.77
2023-02-15T07:49:01.861Z,2.78
2023-02-15T07:50:05.049Z,2.80
2023-02-15T07:51:09.258Z,2.81
2023-02-15T07:52:13.359Z,2.82
2023-02-15T07:53:17.442Z,2.83
2023-02-15T07:54:21.714Z,2.86
2023-02-15T07:55:39.966Z,2.88
2023-02-15T07:56:42.922Z,2.90
2023-02-15T07:57:47.017Z,2.92
2023-02-15T07:59:05.330Z,2.95
2023-02-15T08:00:08.370Z,2.97
2023-02-15T08:01:12.534Z,2.98
2023-02-15T08:02:18.420Z,2.99
2023-02-15T08:03:21.141Z,3.00
2023-02-15T08:04:25.019Z,3.01
2023-02-15T08:05:29.345Z,3.00
2023-02-15T08:06:33.544Z,3.02
2023-02-15T08:07:37.682Z,3.02
2023-02-15T08:08:41.778Z,3.04
2023-02-15T08:09:46.045Z,3.04
2023-02-15T08:10:50.181Z,3.06
2023-02-15T08:11:54.459Z,3.07
2023-02-15T08:12:58.680Z,3.08
2023-02-15T08:14:02.817Z,3.08
2023-02-15T08:15:06.987Z,3.08
2023-02-15T08:16:14.109Z,3.08
2023-02-15T08:17:15.313Z,3.07
2023-02-15T08:18:19.508Z,3.06
2023-02-15T08:19:23.885Z,3.06
2023-02-15T08:20:30.928Z,3.07
2023-02-15T08:21:34.059Z,3.06
2023-02-15T08:22:38.398Z,3.07
2023-02-15T08:23:42.419Z,3.07
2023-02-15T08:24:46.586Z,3.08
2023-02-15T08:25:50.767Z,3.08
2023-02-15T08:26:54.997Z,3.10
2023-02-15T08:27:59.173Z,3.10
2023-02-15T08:29:03.429Z,3.11
2023-02-15T08:30:07.602Z,3.13
2023-02-15T08:31:11.945Z,3.13
2023-02-15T08:32:16.090Z,3.15
2023-02-15T08:33:20.126Z,3.16
2023-02-15T08:34:24.272Z,3.17
2023-02-15T08:35:28.643Z,3.19
2023-02-15T08:36:32.633Z,3.20
2023-02-15T08:37:36.811Z,3.21
2023-02-15T08:38:40.935Z,3.21
2023-02-15T08:39:45.176Z,3.22
2023-02-15T08:40:49.204Z,3.23
2023-02-15T08:41:53.453Z,3.25
2023-02-15T08:42:57.643Z,3.27
2023-02-15T08:44:01.914Z,3.28
2023-02-15T08:45:06.035Z,3.30
2023-02-15T08:46:10.393Z,3.32
2023-02-15T08:47:14.424Z,3.34
2023-02-15T08:48:18.671Z,3.37
2023-02-15T08:49:22.831Z,3.39
2023-02-15T08:50:26.878Z,3.43
2023-02-15T08:51:31.169Z,3.46
2023-02-15T08:52:35.442Z,3.47
2023-02-15T08:53:39.477Z,3.50
2023-02-15T08:54:43.698Z,3.52
2023-02-15T08:56:01.959Z,3.54
2023-02-15T08:57:04.748Z,3.56
2023-02-15T08:58:08.904Z,3.58
2023-02-15T08:59:13.077Z,3.61
2023-02-15T09:00:17.158Z,3.62
2023-02-15T09:01:21.498Z,3.63
2023-02-15T09:02:25.667Z,3.63
2023-02-15T09:03:29.558Z,3.63
2023-02-15T09:04:33.867Z,3.64
2023-02-15T09:05:38.055Z,3.65
2023-02-15T09:06:42.306Z,3.66
2023-02-15T09:07:46.301Z,3.67
2023-02-15T09:08:50.474Z,3.67
2023-02-15T09:09:54.668Z,3.68
2023-02-15T09:10:58.931Z,3.68
2023-02-15T09:12:03.191Z,3.69
2023-02-15T09:13:07.290Z,3.71
2023-02-15T09:14:11.509Z,3.73
2023-02-15T09:15:15.641Z,3.74
2023-02-15T09:16:19.891Z,3.76
2023-02-15T09:17:24.018Z,3.78
2023-02-15T09:18:28.248Z,3.80
2023-02-15T09:19:32.428Z,3.79
2023-02-15T09:20:36.613Z,3.80
2023-02-15T09:21:40.734Z,3.80
2023-02-15T09:22:44.879Z,3.82
2023-02-15T09:23:49.149Z,3.83
2023-02-15T09:24:53.304Z,3.84
2023-02-15T09:25:57.527Z,3.85
2023-02-15T09:27:01.692Z,3.87
2023-02-15T09:28:05.814Z,3.87
2023-02-15T09:29:09.982Z,3.88
2023-02-15T09:30:14.276Z,3.87
2023-02-15T09:31:18.369Z,3.87
2023-02-15T09:32:22.376Z,3.87
2023-02-15T09:33:26.631Z,3.89
2023-02-15T09:34:30.717Z,3.89
2023-02-15T09:35:35.006Z,3.88
2023-02-15T09:36:39.257Z,3.89
2023-02-15T09:37:43.536Z,3.91
2023-02-15T09:38:48.946Z,3.93
2023-02-15T09:39:52.592Z,3.94
2023-02-15T09:40:56.774Z,3.95
2023-02-15T09:42:00.819Z,3.96
2023-02-15T09:43:05.065Z,3.98
2023-02-15T09:44:09.327Z,3.99
2023-02-15T09:45:13.548Z,3.99
2023-02-15T09:46:17.860Z,4.00
2023-02-15T09:47:21.928Z,4.01
2023-02-15T09:48:26.340Z,4.02
2023-02-15T09:49:30.350Z,4.01
2023-02-15T09:50:36.585Z,4.02
2023-02-15T09:51:38.705Z,4.04
2023-02-15T09:52:42.846Z,4.07
2023-02-15T09:53:47.132Z,4.07
2023-02-15T09:54:51.423Z,4.05
2023-02-15T09:56:09.532Z,4.05
2023-02-15T09:57:12.588Z,4.06
2023-02-15T09:58:17.312Z,4.08
2023-02-15T09:59:22.136Z,4.12
2023-02-15T10:00:25.791Z,4.15
2023-02-15T10:01:29.944Z,4.19
2023-02-15T10:02:34.166Z,4.21
2023-02-15T10:03:38.427Z,4.23
2023-02-15T10:04:42.621Z,4.25
2023-02-15T10:05:46.711Z,4.28
2023-02-15T10:06:50.895Z,4.31
2023-02-15T10:07:55.097Z,4.34
2023-02-15T10:08:59.144Z,4.37
2023-02-15T10:10:03.439Z,4.40
2023-02-15T10:11:07.888Z,4.43
2023-02-15T10:12:12.184Z,4.45
2023-02-15T10:13:16.317Z,4.47
2023-02-15T10:14:20.426Z,4.49
2023-02-15T10:15:24.592Z,4.50
2023-02-15T10:16:28.809Z,4.47
2023-02-15T10:17:32.954Z,4.46
2023-02-15T10:18:37.169Z,4.47
2023-02-15T10:19:41.403Z,4.49
2023-02-15T10:20:45.579Z,4.51
2023-02-15T10:22:03.962Z,4.52
2023-02-15T10:23:07.220Z,4.54
2023-02-15T10:24:11.282Z,4.55
2023-02-15T10:25:15.711Z,4.56
2023-02-15T10:26:19.713Z,4.57
2023-02-15T10:27:24.315Z,4.58
2023-02-15T10:28:28.172Z,4.60
2023-02-15T10:29:32.475Z,4.62
2023-02-15T10:30:36.803Z,4.63
2023-02-15T10:31:41.577Z,4.66
2023-02-15T10:32:45.496Z,4.67
2023-02-15T10:33:49.782Z,4.68
2023-02-15T10:34:54.991Z,4.69
2023-02-15T10:35:58.797Z,4.71
2023-02-15T10:37:03.883Z,4.74
2023-02-15T10:38:07.890Z,4.77
2023-02-15T10:39:11.931Z,4.79
2023-02-15T10:40:16.176Z,4.82
2023-02-15T10:41:20.430Z,4.84
2023-02-15T10:42:24.610Z,4.86
2023-02-15T10:43:28.776Z,4.89
2023-02-15T10:44:34.270Z,4.90
2023-02-15T10:45:37.998Z,4.91
2023-02-15T10:46:42.191Z,4.91
2023-02-15T10:47:46.463Z,4.91
2023-02-15T10:48:50.706Z,4.91
2023-02-15T10:49:54.896Z,4.91
2023-02-15T10:50:59.166Z,4.92
2023-02-15T10:52:03.614Z,4.92
2023-02-15T10:53:07.670Z,4.93
2023-02-15T10:54:11.993Z,4.94
2023-02-15T10:55:16.102Z,4.95
2023-02-15T10:56:20.391Z,4.96
2023-02-15T10:57:24.669Z,4.98
2023-02-15T10:58:28.593Z,5.00
2023-02-15T10:59:32.903Z,5.01
2023-02-15T11:00:37.334Z,5.03
2023-02-15T11:01:41.483Z,5.02
2023-02-15T11:02:45.679Z,5.03
2023-02-15T11:03:50.050Z,5.03
2023-02-15T11:04:54.189Z,5.03
2023-02-15T11:05:58.314Z,5.04
2023-02-15T11:07:02.510Z,5.05
2023-02-15T11:08:06.607Z,5.06
2023-02-15T11:09:10.920Z,5.08
2023-02-15T11:10:17.384Z,5.08
2023-02-15T11:11:20.428Z,5.10
2023-02-15T11:12:24.369Z,5.11
2023-02-15T11:13:28.546Z,5.12
2023-02-15T11:14:33.049Z,5.13
2023-02-15T11:15:37.322Z,5.14
2023-02-15T11:16:41.377Z,5.16
2023-02-15T11:17:45.676Z,5.17
2023-02-15T11:18:49.921Z,5.19
2023-02-15T11:19:54.090Z,5.20
2023-02-15T11:20:58.371Z,5.19
2023-02-15T11:22:02.612Z,5.19
2023-02-15T11:23:09.759Z,5.18
2023-02-15T11:24:13.046Z,5.15
2023-02-15T11:25:17.252Z,5.11
2023-02-15T11:26:21.364Z,5.09
2023-02-15T11:27:25.626Z,5.09
2023-02-15T11:28:29.869Z,5.10
2023-02-15T11:29:34.265Z,5.13
2023-02-15T11:30:38.405Z,5.18
2023-02-15T11:31:42.848Z,5.21
2023-02-15T11:32:46.808Z,5.22
2023-02-15T11:33:50.930Z,5.23
2023-02-15T11:34:55.351Z,5.25
2023-02-15T11:35:59.457Z,5.28
2023-02-15T11:37:03.668Z,5.30
2023-02-15T11:38:07.840Z,5.32
2023-02-15T11:39:12.048Z,5.34
2023-02-15T11:40:16.259Z,5.36
2023-02-15T11:41:20.334Z,5.39
2023-02-15T11:42:24.612Z,5.39
2023-02-15T11:43:28.821Z,5.37
2023-02-15T11:44:32.992Z,5.35
2023-02-15T11:45:37.231Z,5.34
2023-02-15T11:46:41.571Z,5.34
2023-02-15T11:47:45.708Z,5.36
2023-02-15T11:48:49.943Z,5.37
2023-02-15T11:49:54.291Z,5.33
2023-02-15T11:50:58.489Z,5.31
2023-02-15T11:52:02.612Z,5.31
2023-02-15T11:53:06.936Z,5.33
2023-02-15T11:54:11.179Z,5.36
2023-02-15T11:55:16.240Z,5.39
2023-02-15T11:56:20.224Z,5.42
2023-02-15T11:57:24.261Z,5.45
2023-02-15T11:58:28.491Z,5.50
2023-02-15T11:59:32.612Z,5.55
2023-02-15T12:00:36.968Z,5.60
2023-02-15T12:01:41.155Z,5.65
2023-02-15T12:02:45.509Z,5.72
2023-02-15T12:03:50.513Z,5.78
2023-02-15T12:04:54.172Z,5.85
2023-02-15T12:05:58.439Z,5.89
2023-02-15T12:07:02.848Z,5.93
2023-02-15T12:08:06.891Z,5.96
2023-02-15T12:09:11.480Z,5.98
2023-02-15T12:10:15.634Z,6.00
2023-02-15T12:11:19.816Z,6.01
2023-02-15T12:12:23.929Z,6.02
2023-02-15T12:13:28.158Z,6.03
2023-02-15T12:14:32.502Z,6.04
2023-02-15T12:15:36.559Z,6.04
2023-02-15T12:16:40.664Z,6.06
2023-02-15T12:17:45.842Z,6.09
2023-02-15T12:18:49.781Z,6.12
2023-02-15T12:19:53.984Z,6.15
2023-02-15T12:20:58.174Z,6.18
2023-02-15T12:22:02.413Z,6.21
2023-02-15T12:23:06.605Z,6.23
2023-02-15T12:24:19.865Z,6.25
2023-02-15T12:26:48.071Z,6.28
2023-02-15T12:28:05.093Z,6.29
2023-02-15T12:29:08.344Z,6.30
2023-02-15T12:30:12.587Z,6.31
2023-02-15T12:31:16.743Z,6.33
2023-02-15T12:32:20.908Z,6.34
2023-02-15T12:33:25.027Z,6.36
2023-02-15T12:34:29.208Z,6.39
2023-02-15T12:35:33.294Z,6.40
2023-02-15T12:36:37.498Z,6.42
2023-02-15T12:37:42.863Z,6.43
2023-02-15T12:38:46.588Z,6.44
2023-02-15T12:39:50.814Z,6.46
2023-02-15T12:40:54.977Z,6.47
2023-02-15T12:41:59.151Z,6.48
2023-02-15T12:43:09.039Z,6.49
2023-02-15T12:44:07.770Z,6.50
2023-02-15T12:45:11.874Z,6.50
2023-02-15T12:46:16.066Z,6.50
2023-02-15T12:47:20.241Z,6.50
2023-02-15T12:48:24.443Z,6.50
2023-02-15T12:49:28.675Z,6.48
2023-02-15T12:50:35.864Z,6.47
2023-02-15T12:51:37.135Z,6.47
2023-02-15T12:52:41.242Z,6.47
2023-02-15T12:53:45.471Z,6.47
2023-02-15T12:54:49.677Z,6.48
2023-02-15T12:55:54.058Z,6.49
2023-02-15T12:56:58.182Z,6.50
2023-02-15T12:58:02.352Z,6.50
2023-02-15T12:59:06.572Z,6.51
2023-02-15T13:00:10.751Z,6.52
2023-02-15T13:01:14.951Z,6.52
2023-02-15T13:02:19.102Z,6.52
2023-02-15T13:03:23.303Z,6.52
2023-02-15T13:04:27.537Z,6.52
2023-02-15T13:05:31.738Z,6.53
2023-02-15T13:06:35.809Z,6.53
2023-02-15T13:07:39.976Z,6.51
2023-02-15T13:08:58.318Z,6.51
2023-02-15T13:10:04.664Z,6.52
2023-02-15T13:11:07.849Z,6.53
2023-02-15T13:12:12.036Z,6.55
2023-02-15T13:13:16.288Z,6.56
2023-02-15T13:14:20.408Z,6.58
2023-02-15T13:15:24.661Z,6.59
2023-02-15T13:16:28.885Z,6.60
2023-02-15T13:17:33.001Z,6.61
2023-02-15T13:18:37.196Z,6.61
2023-02-15T13:19:41.488Z,6.61
2023-02-15T13:20:45.740Z,6.61
2023-02-15T13:21:49.895Z,6.62
2023-02-15T13:22:54.123Z,6.62
2023-02-15T13:23:58.359Z,6.63
2023-02-15T13:25:02.429Z,6.63
2023-02-15T13:26:06.675Z,6.62
2023-02-15T13:27:15.738Z,6.61
2023-02-15T13:28:15.203Z,6.60
2023-02-15T13:29:19.373Z,6.60
2023-02-15T13:30:23.609Z,6.59
2023-02-15T13:31:27.912Z,6.59
2023-02-15T13:32:32.037Z,6.58
2023-02-15T13:33:36.224Z,6.58
2023-02-15T13:34:40.484Z,6.59
2023-02-15T13:35:44.610Z,6.59
2023-02-15T13:36:48.759Z,6.58
2023-02-15T13:37:52.954Z,6.56
2023-02-15T13:38:57.158Z,6.54
2023-02-15T13:40:01.349Z,6.53
2023-02-15T13:41:05.635Z,6.53
2023-02-15T13:42:09.880Z,6.53
2023-02-15T13:43:14.079Z,6.53
2023-02-15T13:44:18.321Z,6.54
2023-02-15T13:45:22.443Z,6.55
2023-02-15T13:46:26.756Z,6.55
2023-02-15T13:47:30.919Z,6.55
2023-02-15T13:48:46.988Z,6.55
2023-02-15T13:49:39.422Z,6.55
2023-02-15T13:50:43.600Z,6.54
2023-02-15T13:51:47.867Z,6.53
2023-02-15T13:52:52.070Z,6.53
2023-02-15T13:53:56.279Z,6.52
2023-02-15T13:55:00.476Z,6.51
2023-02-15T13:56:04.848Z,6.51
2023-02-15T13:57:08.958Z,6.50
2023-02-15T13:58:13.155Z,6.46
2023-02-15T13:59:17.306Z,6.43
2023-02-15T14:00:21.621Z,6.41
2023-02-15T14:01:25.888Z,6.39
2023-02-15T14:02:29.967Z,6.38
2023-02-15T14:03:34.158Z,6.36
2023-02-15T14:04:38.275Z,6.34
2023-02-15T14:05:42.580Z,6.33
2023-02-15T14:06:46.750Z,6.31
2023-02-15T14:07:50.956Z,6.30
2023-02-15T14:08:55.158Z,6.28
2023-02-15T14:09:59.328Z,6.26
2023-02-15T14:11:03.854Z,6.24
2023-02-15T14:12:07.680Z,6.22
2023-02-15T14:13:11.826Z,6.20
2023-02-15T14:14:16.158Z,6.19
2023-02-15T14:15:20.370Z,6.17
2023-02-15T14:16:24.660Z,6.16
2023-02-15T14:17:28.799Z,6.16
2023-02-15T14:18:33.014Z,6.15
2023-02-15T14:19:37.248Z,6.15
2023-02-15T14:20:41.602Z,6.16
2023-02-15T14:21:45.716Z,6.16